Allerton, Illinois
Current Conditions -  °F | °C
As of 9:53 PM on Tuesday 27 Jan 2015 (Local Time) from KCMI Reporting Station
Clear Clear  
Wind Chill: 23°   Ceiling: Unl
Heat Index: 23°   Visibility: 9mi
Dew Point: 19°   Wind: 0mph
Humidity: 85%   Direction: NA
Pressure: 30.25"   Gusts: NA
Location:  39.91°N, 87.94°W
Report Text: KCMI 280353Z 00000KT 9SM CLR M05/M07 A3025 RMK AO2 SLP253 T10501072
Loading
Personal Weather Stations






























Interactive Weather Map New forecast layout! Learn more

10-Day Weather Forecast

Advertisements
Track Severe Weather on mobile